sensor_id;sensor_type;location;lat;lon;timestamp;pressure;altitude;pressure_sealevel;temperature
70389;BMP280;58659;49.050;8.530;2022-07-29T00:00:35;99740.22;;;20.50
70389;BMP280;58659;49.050;8.530;2022-07-29T00:03:02;99736.28;;;20.42
70389;BMP280;58659;49.050;8.530;2022-07-29T00:05:27;99719.81;;;20.34
70389;BMP280;58659;49.050;8.530;2022-07-29T00:07:52;99723.28;;;20.31
70389;BMP280;58659;49.050;8.530;2022-07-29T00:10:18;99723.88;;;20.22
70389;BMP280;58659;49.050;8.530;2022-07-29T00:12:43;99714.09;;;20.07
70389;BMP280;58659;49.050;8.530;2022-07-29T00:15:08;99720.44;;;19.97
70389;BMP280;58659;49.050;8.530;2022-07-29T00:17:33;99714.00;;;19.82
70389;BMP280;58659;49.050;8.530;2022-07-29T00:19:59;99719.94;;;19.86
70389;BMP280;58659;49.050;8.530;2022-07-29T00:22:24;99718.38;;;19.88
70389;BMP280;58659;49.050;8.530;2022-07-29T00:24:50;99727.72;;;19.93
70389;BMP280;58659;49.050;8.530;2022-07-29T00:27:15;99732.19;;;19.96
70389;BMP280;58659;49.050;8.530;2022-07-29T00:29:40;99723.56;;;19.92
70389;BMP280;58659;49.050;8.530;2022-07-29T00:32:05;99722.81;;;19.91
70389;BMP280;58659;49.050;8.530;2022-07-29T00:34:31;99717.84;;;19.93
70389;BMP280;58659;49.050;8.530;2022-07-29T00:37:15;99718.09;;;19.99
70389;BMP280;58659;49.050;8.530;2022-07-29T00:39:41;99713.44;;;20.03
70389;BMP280;58659;49.050;8.530;2022-07-29T00:42:07;99710.81;;;20.03
70389;BMP280;58659;49.050;8.530;2022-07-29T00:44:38;99702.19;;;19.99
70389;BMP280;58659;49.050;8.530;2022-07-29T00:47:04;99704.53;;;19.97
70389;BMP280;58659;49.050;8.530;2022-07-29T00:49:29;99691.75;;;19.92
70389;BMP280;58659;49.050;8.530;2022-07-29T00:51:55;99692.59;;;19.89
70389;BMP280;58659;49.050;8.530;2022-07-29T00:54:20;99686.31;;;19.83
70389;BMP280;58659;49.050;8.530;2022-07-29T00:56:46;99681.19;;;19.76
70389;BMP280;58659;49.050;8.530;2022-07-29T00:59:11;99684.69;;;19.73
70389;BMP280;58659;49.050;8.530;2022-07-29T01:01:37;99682.50;;;19.68
70389;BMP280;58659;49.050;8.530;2022-07-29T01:04:02;99685.28;;;19.64
70389;BMP280;58659;49.050;8.530;2022-07-29T01:06:27;99686.88;;;19.62
70389;BMP280;58659;49.050;8.530;2022-07-29T01:08:53;99680.81;;;19.61
70389;BMP280;58659;49.050;8.530;2022-07-29T01:11:18;99671.38;;;19.60
70389;BMP280;58659;49.050;8.530;2022-07-29T01:13:44;99680.41;;;19.63
70389;BMP280;58659;49.050;8.530;2022-07-29T01:16:15;99678.06;;;19.65
70389;BMP280;58659;49.050;8.530;2022-07-29T01:18:46;99675.78;;;19.67
70389;BMP280;58659;49.050;8.530;2022-07-29T01:23:56;99679.38;;;19.73
70389;BMP280;58659;49.050;8.530;2022-07-29T01:31:28;99677.88;;;19.72
70389;BMP280;58659;49.050;8.530;2022-07-29T01:33:57;99672.66;;;19.68
70389;BMP280;58659;49.050;8.530;2022-07-29T01:37:07;99668.22;;;19.65
70389;BMP280;58659;49.050;8.530;2022-07-29T01:39:20;99669.03;;;19.62
70389;BMP280;58659;49.050;8.530;2022-07-29T01:44:34;99664.00;;;19.51
70389;BMP280;58659;49.050;8.530;2022-07-29T01:47:02;99664.94;;;19.45
70389;BMP280;58659;49.050;8.530;2022-07-29T01:49:31;99664.25;;;19.41
70389;BMP280;58659;49.050;8.530;2022-07-29T01:52:00;99667.34;;;19.39
70389;BMP280;58659;49.050;8.530;2022-07-29T01:54:40;99673.47;;;19.36
70389;BMP280;58659;49.050;8.530;2022-07-29T01:57:11;99672.78;;;19.32
70389;BMP280;58659;49.050;8.530;2022-07-29T01:59:38;99665.34;;;19.27
70389;BMP280;58659;49.050;8.530;2022-07-29T02:02:03;99680.50;;;19.27
70389;BMP280;58659;49.050;8.530;2022-07-29T02:04:29;99674.13;;;19.24
70389;BMP280;58659;49.050;8.530;2022-07-29T02:07:01;99675.28;;;19.23
70389;BMP280;58659;49.050;8.530;2022-07-29T02:09:27;99673.88;;;19.19
70389;BMP280;58659;49.050;8.530;2022-07-29T02:11:53;99667.91;;;19.15
70389;BMP280;58659;49.050;8.530;2022-07-29T02:14:22;99671.28;;;19.15
70389;BMP280;58659;49.050;8.530;2022-07-29T02:16:50;99671.66;;;19.17
70389;BMP280;58659;49.050;8.530;2022-07-29T02:19:18;99668.50;;;19.22
70389;BMP280;58659;49.050;8.530;2022-07-29T02:21:45;99669.59;;;19.25
70389;BMP280;58659;49.050;8.530;2022-07-29T02:24:11;99672.63;;;19.23
70389;BMP280;58659;49.050;8.530;2022-07-29T02:26:39;99671.53;;;19.21
70389;BMP280;58659;49.050;8.530;2022-07-29T02:29:06;99661.38;;;19.19
70389;BMP280;58659;49.050;8.530;2022-07-29T02:31:34;99668.25;;;19.17
70389;BMP280;58659;49.050;8.530;2022-07-29T02:34:02;99666.50;;;19.10
70389;BMP280;58659;49.050;8.530;2022-07-29T02:36:29;99660.16;;;19.08
70389;BMP280;58659;49.050;8.530;2022-07-29T02:38:56;99661.38;;;19.03
70389;BMP280;58659;49.050;8.530;2022-07-29T02:43:56;99655.31;;;19.03
70389;BMP280;58659;49.050;8.530;2022-07-29T02:46:29;99660.63;;;19.03
70389;BMP280;58659;49.050;8.530;2022-07-29T02:49:04;99659.06;;;19.05
70389;BMP280;58659;49.050;8.530;2022-07-29T02:51:42;99655.59;;;19.08
70389;BMP280;58659;49.050;8.530;2022-07-29T02:54:10;99661.94;;;19.11
70389;BMP280;58659;49.050;8.530;2022-07-29T02:56:38;99670.63;;;19.11
70389;BMP280;58659;49.050;8.530;2022-07-29T02:59:08;99665.34;;;19.11
70389;BMP280;58659;49.050;8.530;2022-07-29T03:01:39;99658.66;;;19.07
70389;BMP280;58659;49.050;8.530;2022-07-29T03:04:05;99667.84;;;19.02
70389;BMP280;58659;49.050;8.530;2022-07-29T03:06:32;99662.22;;;19.00
70389;BMP280;58659;49.050;8.530;2022-07-29T03:09:07;99658.47;;;18.97
70389;BMP280;58659;49.050;8.530;2022-07-29T03:11:34;99662.97;;;19.01
70389;BMP280;58659;49.050;8.530;2022-07-29T03:14:00;99658.38;;;19.01
70389;BMP280;58659;49.050;8.530;2022-07-29T03:16:26;99659.06;;;19.05
70389;BMP280;58659;49.050;8.530;2022-07-29T03:18:53;99659.78;;;19.06
70389;BMP280;58659;49.050;8.530;2022-07-29T03:21:18;99663.53;;;19.08
70389;BMP280;58659;49.050;8.530;2022-07-29T03:23:44;99669.13;;;19.10
70389;BMP280;58659;49.050;8.530;2022-07-29T03:26:12;99671.78;;;19.10
70389;BMP280;58659;49.050;8.530;2022-07-29T03:28:38;99671.78;;;19.10
70389;BMP280;58659;49.050;8.530;2022-07-29T03:31:03;99662.97;;;19.01
70389;BMP280;58659;49.050;8.530;2022-07-29T03:33:28;99654.56;;;18.86
70389;BMP280;58659;49.050;8.530;2022-07-29T03:35:55;99662.66;;;18.79
70389;BMP280;58659;49.050;8.530;2022-07-29T03:38:20;99667.75;;;18.70
70389;BMP280;58659;49.050;8.530;2022-07-29T03:40:53;99670.56;;;18.63
70389;BMP280;58659;49.050;8.530;2022-07-29T03:43:19;99663.75;;;18.46
70389;BMP280;58659;49.050;8.530;2022-07-29T03:45:45;99661.16;;;18.42
70389;BMP280;58659;49.050;8.530;2022-07-29T03:48:12;99659.72;;;18.38
70389;BMP280;58659;49.050;8.530;2022-07-29T03:50:38;99650.06;;;18.31
70389;BMP280;58659;49.050;8.530;2022-07-29T03:53:04;99648.16;;;18.12
70389;BMP280;58659;49.050;8.530;2022-07-29T03:55:32;99647.59;;;18.01
70389;BMP280;58659;49.050;8.530;2022-07-29T03:58:01;99640.06;;;17.99
70389;BMP280;58659;49.050;8.530;2022-07-29T04:00:29;99636.34;;;17.97
70389;BMP280;58659;49.050;8.530;2022-07-29T04:02:55;99641.63;;;17.97
70389;BMP280;58659;49.050;8.530;2022-07-29T04:05:20;99640.41;;;18.01
70389;BMP280;58659;49.050;8.530;2022-07-29T04:07:46;99644.88;;;18.04
70389;BMP280;58659;49.050;8.530;2022-07-29T04:10:12;99646.03;;;18.03
70389;BMP280;58659;49.050;8.530;2022-07-29T04:12:37;99642.66;;;18.03
70389;BMP280;58659;49.050;8.530;2022-07-29T04:15:03;99641.16;;;18.02
70389;BMP280;58659;49.050;8.530;2022-07-29T04:17:28;99641.56;;;18.00
70389;BMP280;58659;49.050;8.530;2022-07-29T04:19:53;99641.91;;;18.02
70389;BMP280;58659;49.050;8.530;2022-07-29T04:22:19;99645.22;;;18.06
70389;BMP280;58659;49.050;8.530;2022-07-29T04:24:44;99647.47;;;18.08
70389;BMP280;58659;49.050;8.530;2022-07-29T04:27:12;99656.38;;;18.17
70389;BMP280;58659;49.050;8.530;2022-07-29T04:29:37;99658.59;;;18.19
70389;BMP280;58659;49.050;8.530;2022-07-29T04:32:03;99646.53;;;18.18
70389;BMP280;58659;49.050;8.530;2022-07-29T04:34:29;99654.72;;;18.23
70389;BMP280;58659;49.050;8.530;2022-07-29T04:36:55;99669.72;;;18.30
70389;BMP280;58659;49.050;8.530;2022-07-29T04:39:20;99662.31;;;18.21
70389;BMP280;58659;49.050;8.530;2022-07-29T04:41:46;99656.66;;;18.19
70389;BMP280;58659;49.050;8.530;2022-07-29T04:44:12;99655.88;;;18.22
70389;BMP280;58659;49.050;8.530;2022-07-29T04:46:37;99655.81;;;18.26
70389;BMP280;58659;49.050;8.530;2022-07-29T04:49:03;99660.34;;;18.25
70389;BMP280;58659;49.050;8.530;2022-07-29T04:51:28;99665.97;;;18.27
70389;BMP280;58659;49.050;8.530;2022-07-29T04:53:53;99665.25;;;18.27
70389;BMP280;58659;49.050;8.530;2022-07-29T04:56:18;99666.31;;;18.29
70389;BMP280;58659;49.050;8.530;2022-07-29T04:58:44;99673.03;;;18.34
70389;BMP280;58659;49.050;8.530;2022-07-29T05:01:09;99673.63;;;18.42
70389;BMP280;58659;49.050;8.530;2022-07-29T05:03:34;99685.91;;;18.52
70389;BMP280;58659;49.050;8.530;2022-07-29T05:05:59;99679.00;;;18.58
70389;BMP280;58659;49.050;8.530;2022-07-29T05:08:25;99696.97;;;18.66
70389;BMP280;58659;49.050;8.530;2022-07-29T05:10:50;99696.53;;;18.68
70389;BMP280;58659;49.050;8.530;2022-07-29T05:13:15;99694.66;;;18.68
70389;BMP280;58659;49.050;8.530;2022-07-29T05:15:41;99702.16;;;18.70
70389;BMP280;58659;49.050;8.530;2022-07-29T05:18:06;99704.31;;;18.75
70389;BMP280;58659;49.050;8.530;2022-07-29T05:20:33;99701.69;;;18.75
70389;BMP280;58659;49.050;8.530;2022-07-29T05:23:00;99706.59;;;18.76
70389;BMP280;58659;49.050;8.530;2022-07-29T05:25:25;99703.44;;;18.81
70389;BMP280;58659;49.050;8.530;2022-07-29T05:27:51;99712.47;;;18.84
70389;BMP280;58659;49.050;8.530;2022-07-29T05:30:16;99715.78;;;18.88
70389;BMP280;58659;49.050;8.530;2022-07-29T05:32:42;99724.81;;;18.90
70389;BMP280;58659;49.050;8.530;2022-07-29T05:35:07;99720.50;;;18.96
70389;BMP280;58659;49.050;8.530;2022-07-29T05:37:33;99729.44;;;19.03
70389;BMP280;58659;49.050;8.530;2022-07-29T05:39:58;99728.56;;;19.09
70389;BMP280;58659;49.050;8.530;2022-07-29T05:42:24;99732.81;;;19.23
70389;BMP280;58659;49.050;8.530;2022-07-29T05:44:49;99731.75;;;19.36
70389;BMP280;58659;49.050;8.530;2022-07-29T05:47:14;99746.50;;;19.53
70389;BMP280;58659;49.050;8.530;2022-07-29T05:49:39;99750.84;;;19.76
70389;BMP280;58659;49.050;8.530;2022-07-29T05:52:05;99758.22;;;20.01
70389;BMP280;58659;49.050;8.530;2022-07-29T05:54:30;99773.56;;;20.22
70389;BMP280;58659;49.050;8.530;2022-07-29T05:56:55;99773.06;;;20.40
70389;BMP280;58659;49.050;8.530;2022-07-29T05:59:20;99778.03;;;20.54
70389;BMP280;58659;49.050;8.530;2022-07-29T06:01:46;99783.22;;;20.57
70389;BMP280;58659;49.050;8.530;2022-07-29T06:04:11;99780.06;;;20.62
70389;BMP280;58659;49.050;8.530;2022-07-29T06:06:37;99789.50;;;20.63
70389;BMP280;58659;49.050;8.530;2022-07-29T06:09:02;99784.34;;;20.72
70389;BMP280;58659;49.050;8.530;2022-07-29T06:11:27;99781.78;;;20.94
70389;BMP280;58659;49.050;8.530;2022-07-29T06:13:52;99782.78;;;21.13
70389;BMP280;58659;49.050;8.530;2022-07-29T06:16:18;99785.84;;;21.24
70389;BMP280;58659;49.050;8.530;2022-07-29T06:18:43;99793.19;;;21.32
70389;BMP280;58659;49.050;8.530;2022-07-29T06:21:08;99790.72;;;21.38
70389;BMP280;58659;49.050;8.530;2022-07-29T06:23:35;99801.44;;;21.47
70389;BMP280;58659;49.050;8.530;2022-07-29T06:26:00;99799.13;;;21.36
70389;BMP280;58659;49.050;8.530;2022-07-29T06:28:25;99798.69;;;21.38
70389;BMP280;58659;49.050;8.530;2022-07-29T06:30:51;99799.25;;;21.33
70389;BMP280;58659;49.050;8.530;2022-07-29T06:33:17;99805.06;;;21.40
70389;BMP280;58659;49.050;8.530;2022-07-29T06:35:42;99805.72;;;21.32
70389;BMP280;58659;49.050;8.530;2022-07-29T06:38:09;99800.63;;;21.37
70389;BMP280;58659;49.050;8.530;2022-07-29T06:40:34;99808.91;;;21.39
70389;BMP280;58659;49.050;8.530;2022-07-29T06:43:18;99816.25;;;21.48
70389;BMP280;58659;49.050;8.530;2022-07-29T06:45:44;99807.06;;;21.74
70389;BMP280;58659;49.050;8.530;2022-07-29T06:48:09;99809.94;;;22.01
70389;BMP280;58659;49.050;8.530;2022-07-29T06:50:35;99810.13;;;22.28
70389;BMP280;58659;49.050;8.530;2022-07-29T06:53:00;99813.84;;;22.53
70389;BMP280;58659;49.050;8.530;2022-07-29T06:55:25;99811.78;;;22.78
70389;BMP280;58659;49.050;8.530;2022-07-29T06:57:51;99824.50;;;23.05
70389;BMP280;58659;49.050;8.530;2022-07-29T07:00:16;99818.13;;;23.12
70389;BMP280;58659;49.050;8.530;2022-07-29T07:02:41;99822.75;;;23.20
70389;BMP280;58659;49.050;8.530;2022-07-29T07:05:07;99817.31;;;23.42
70389;BMP280;58659;49.050;8.530;2022-07-29T07:07:32;99825.47;;;23.47
70389;BMP280;58659;49.050;8.530;2022-07-29T07:09:57;99824.31;;;23.48
70389;BMP280;58659;49.050;8.530;2022-07-29T07:12:23;99826.88;;;23.79
70389;BMP280;58659;49.050;8.530;2022-07-29T07:14:48;99827.31;;;24.14
70389;BMP280;58659;49.050;8.530;2022-07-29T07:17:13;99832.88;;;24.52
70389;BMP280;58659;49.050;8.530;2022-07-29T07:19:39;99836.31;;;24.85
70389;BMP280;58659;49.050;8.530;2022-07-29T07:22:04;99842.03;;;25.35
70389;BMP280;58659;49.050;8.530;2022-07-29T07:24:29;99833.81;;;25.38
70389;BMP280;58659;49.050;8.530;2022-07-29T07:26:55;99828.69;;;25.87
70389;BMP280;58659;49.050;8.530;2022-07-29T07:29:20;99831.94;;;26.35
70389;BMP280;58659;49.050;8.530;2022-07-29T07:31:45;99840.63;;;26.16
70389;BMP280;58659;49.050;8.530;2022-07-29T07:34:10;99847.19;;;26.00
70389;BMP280;58659;49.050;8.530;2022-07-29T07:36:36;99844.69;;;25.58
70389;BMP280;58659;49.050;8.530;2022-07-29T07:39:01;99850.38;;;25.51
70389;BMP280;58659;49.050;8.530;2022-07-29T07:41:27;99844.28;;;25.27
70389;BMP280;58659;49.050;8.530;2022-07-29T07:43:52;99850.25;;;25.22
70389;BMP280;58659;49.050;8.530;2022-07-29T07:46:18;99851.31;;;25.24
70389;BMP280;58659;49.050;8.530;2022-07-29T07:48:43;99849.63;;;25.51
70389;BMP280;58659;49.050;8.530;2022-07-29T07:51:08;99850.75;;;25.82
70389;BMP280;58659;49.050;8.530;2022-07-29T07:53:33;99847.72;;;26.04
70389;BMP280;58659;49.050;8.530;2022-07-29T07:55:59;99846.59;;;25.96
70389;BMP280;58659;49.050;8.530;2022-07-29T07:58:24;99842.53;;;25.71
70389;BMP280;58659;49.050;8.530;2022-07-29T08:00:50;99851.06;;;25.37
70389;BMP280;58659;49.050;8.530;2022-07-29T08:03:15;99835.19;;;26.10
70389;BMP280;58659;49.050;8.530;2022-07-29T08:05:40;99850.81;;;26.90
70389;BMP280;58659;49.050;8.530;2022-07-29T08:08:06;99845.78;;;27.18
70389;BMP280;58659;49.050;8.530;2022-07-29T08:10:31;99843.03;;;27.32
70389;BMP280;58659;49.050;8.530;2022-07-29T08:13:15;99848.38;;;26.92
70389;BMP280;58659;49.050;8.530;2022-07-29T08:15:41;99850.53;;;26.73
70389;BMP280;58659;49.050;8.530;2022-07-29T08:18:08;99852.78;;;26.60
70389;BMP280;58659;49.050;8.530;2022-07-29T08:20:33;99853.88;;;26.68
70389;BMP280;58659;49.050;8.530;2022-07-29T08:23:00;99849.94;;;26.49
70389;BMP280;58659;49.050;8.530;2022-07-29T08:25:25;99840.88;;;26.32
70389;BMP280;58659;49.050;8.530;2022-07-29T08:27:51;99848.56;;;25.95
70389;BMP280;58659;49.050;8.530;2022-07-29T08:30:16;99847.25;;;26.05
70389;BMP280;58659;49.050;8.530;2022-07-29T08:32:42;99847.00;;;26.18
70389;BMP280;58659;49.050;8.530;2022-07-29T08:35:07;99846.63;;;26.25
70389;BMP280;58659;49.050;8.530;2022-07-29T08:37:32;99855.56;;;26.22
70389;BMP280;58659;49.050;8.530;2022-07-29T08:39:57;99862.41;;;26.52
70389;BMP280;58659;49.050;8.530;2022-07-29T08:42:23;99870.19;;;27.40
70389;BMP280;58659;49.050;8.530;2022-07-29T08:44:48;99866.03;;;27.59
70389;BMP280;58659;49.050;8.530;2022-07-29T08:47:14;99855.00;;;27.31
70389;BMP280;58659;49.050;8.530;2022-07-29T08:49:39;99858.25;;;27.61
70389;BMP280;58659;49.050;8.530;2022-07-29T08:52:05;99862.00;;;27.95
70389;BMP280;58659;49.050;8.530;2022-07-29T08:54:30;99862.84;;;28.32
70389;BMP280;58659;49.050;8.530;2022-07-29T08:56:55;99860.59;;;28.62
70389;BMP280;58659;49.050;8.530;2022-07-29T08:59:21;99862.06;;;29.10
70389;BMP280;58659;49.050;8.530;2022-07-29T09:01:48;99859.81;;;29.68
70389;BMP280;58659;49.050;8.530;2022-07-29T09:04:13;99856.06;;;29.48
70389;BMP280;58659;49.050;8.530;2022-07-29T09:06:43;99856.28;;;29.39
70389;BMP280;58659;49.050;8.530;2022-07-29T09:09:09;99862.53;;;29.03
70389;BMP280;58659;49.050;8.530;2022-07-29T09:11:34;99860.03;;;28.21
70389;BMP280;58659;49.050;8.530;2022-07-29T09:14:00;99858.31;;;28.18
70389;BMP280;58659;49.050;8.530;2022-07-29T09:16:25;99856.53;;;28.77
70389;BMP280;58659;49.050;8.530;2022-07-29T09:18:51;99863.22;;;28.98
70389;BMP280;58659;49.050;8.530;2022-07-29T09:21:16;99864.38;;;29.45
70389;BMP280;58659;49.050;8.530;2022-07-29T09:24:02;99864.19;;;29.71
70389;BMP280;58659;49.050;8.530;2022-07-29T09:26:28;99861.53;;;30.26
70389;BMP280;58659;49.050;8.530;2022-07-29T09:28:53;99859.44;;;30.71
70389;BMP280;58659;49.050;8.530;2022-07-29T09:31:19;99862.91;;;30.66
70389;BMP280;58659;49.050;8.530;2022-07-29T09:33:51;99852.00;;;30.99
70389;BMP280;58659;49.050;8.530;2022-07-29T09:36:16;99853.81;;;30.74
70389;BMP280;58659;49.050;8.530;2022-07-29T09:38:42;99853.56;;;30.78
70389;BMP280;58659;49.050;8.530;2022-07-29T09:41:07;99840.38;;;31.20
70389;BMP280;58659;49.050;8.530;2022-07-29T09:43:35;99840.56;;;31.28
70389;BMP280;58659;49.050;8.530;2022-07-29T09:46:12;99846.31;;;31.08
70389;BMP280;58659;49.050;8.530;2022-07-29T09:48:38;99838.22;;;31.08
70389;BMP280;58659;49.050;8.530;2022-07-29T09:51:03;99841.66;;;31.14
70389;BMP280;58659;49.050;8.530;2022-07-29T09:53:31;99845.19;;;30.76
70389;BMP280;58659;49.050;8.530;2022-07-29T09:55:57;99840.53;;;31.33
70389;BMP280;58659;49.050;8.530;2022-07-29T09:58:23;99840.63;;;31.52
70389;BMP280;58659;49.050;8.530;2022-07-29T10:00:49;99840.72;;;31.41
70389;BMP280;58659;49.050;8.530;2022-07-29T10:03:17;99846.44;;;31.32
70389;BMP280;58659;49.050;8.530;2022-07-29T10:05:43;99851.38;;;31.28
70389;BMP280;58659;49.050;8.530;2022-07-29T10:08:09;99851.84;;;31.32
70389;BMP280;58659;49.050;8.530;2022-07-29T10:10:35;99837.81;;;30.82
70389;BMP280;58659;49.050;8.530;2022-07-29T10:13:03;99847.75;;;30.40
70389;BMP280;58659;49.050;8.530;2022-07-29T10:15:29;99838.22;;;30.28
70389;BMP280;58659;49.050;8.530;2022-07-29T10:17:55;99839.47;;;30.22
70389;BMP280;58659;49.050;8.530;2022-07-29T10:20:21;99833.03;;;30.53
70389;BMP280;58659;49.050;8.530;2022-07-29T10:22:47;99842.34;;;30.63
70389;BMP280;58659;49.050;8.530;2022-07-29T10:25:12;99845.75;;;31.61
70389;BMP280;58659;49.050;8.530;2022-07-29T10:27:39;99832.75;;;32.37
70389;BMP280;58659;49.050;8.530;2022-07-29T10:30:04;99833.63;;;32.70
70389;BMP280;58659;49.050;8.530;2022-07-29T10:35:13;99838.34;;;31.67
70389;BMP280;58659;49.050;8.530;2022-07-29T10:40:22;99817.78;;;30.72
70389;BMP280;58659;49.050;8.530;2022-07-29T10:43:17;99817.59;;;31.16
70389;BMP280;58659;49.050;8.530;2022-07-29T10:45:45;99809.84;;;31.66
70389;BMP280;58659;49.050;8.530;2022-07-29T10:48:10;99804.94;;;31.65
70389;BMP280;58659;49.050;8.530;2022-07-29T10:53:20;99802.38;;;32.50
70389;BMP280;58659;49.050;8.530;2022-07-29T10:55:46;99812.41;;;32.92
70389;BMP280;58659;49.050;8.530;2022-07-29T10:58:20;99810.28;;;33.04
70389;BMP280;58659;49.050;8.530;2022-07-29T11:00:46;99794.72;;;33.23
70389;BMP280;58659;49.050;8.530;2022-07-29T11:03:54;99788.72;;;33.88
70389;BMP280;58659;49.050;8.530;2022-07-29T11:06:00;99798.88;;;34.34
70389;BMP280;58659;49.050;8.530;2022-07-29T11:08:26;99790.03;;;34.20
70389;BMP280;58659;49.050;8.530;2022-07-29T11:10:52;99804.56;;;34.56
70389;BMP280;58659;49.050;8.530;2022-07-29T11:16:02;99797.63;;;34.82
70389;BMP280;58659;49.050;8.530;2022-07-29T11:18:27;99799.78;;;34.49
70389;BMP280;58659;49.050;8.530;2022-07-29T11:20:52;99795.81;;;34.84
70389;BMP280;58659;49.050;8.530;2022-07-29T11:23:19;99778.78;;;35.25
70389;BMP280;58659;49.050;8.530;2022-07-29T11:25:45;99781.31;;;35.71
70389;BMP280;58659;49.050;8.530;2022-07-29T11:28:13;99790.88;;;36.08
70389;BMP280;58659;49.050;8.530;2022-07-29T11:30:47;99776.13;;;36.39
70389;BMP280;58659;49.050;8.530;2022-07-29T11:36:13;99779.47;;;35.18
70389;BMP280;58659;49.050;8.530;2022-07-29T11:38:39;99789.63;;;35.73
70389;BMP280;58659;49.050;8.530;2022-07-29T11:41:23;99780.09;;;35.52
70389;BMP280;58659;49.050;8.530;2022-07-29T11:43:59;99782.56;;;35.70
70389;BMP280;58659;49.050;8.530;2022-07-29T11:46:46;99784.63;;;35.29
70389;BMP280;58659;49.050;8.530;2022-07-29T11:49:20;99792.59;;;35.83
70389;BMP280;58659;49.050;8.530;2022-07-29T11:51:56;99789.25;;;36.78
70389;BMP280;58659;49.050;8.530;2022-07-29T11:54:23;99778.72;;;36.75
70389;BMP280;58659;49.050;8.530;2022-07-29T11:56:49;99781.25;;;35.64
70389;BMP280;58659;49.050;8.530;2022-07-29T11:59:15;99781.63;;;36.04
70389;BMP280;58659;49.050;8.530;2022-07-29T12:01:51;99776.66;;;35.87
70389;BMP280;58659;49.050;8.530;2022-07-29T12:04:16;99767.53;;;35.21
70389;BMP280;58659;49.050;8.530;2022-07-29T12:06:41;99771.78;;;34.68
70389;BMP280;58659;49.050;8.530;2022-07-29T12:09:08;99772.91;;;34.93
70389;BMP280;58659;49.050;8.530;2022-07-29T12:11:33;99776.94;;;34.79
70389;BMP280;58659;49.050;8.530;2022-07-29T12:13:58;99786.44;;;34.38
70389;BMP280;58659;49.050;8.530;2022-07-29T12:16:33;99781.75;;;34.52
70389;BMP280;58659;49.050;8.530;2022-07-29T12:18:59;99777.06;;;35.07
70389;BMP280;58659;49.050;8.530;2022-07-29T12:21:26;99777.31;;;35.16
70389;BMP280;58659;49.050;8.530;2022-07-29T12:23:52;99785.06;;;34.58
70389;BMP280;58659;49.050;8.530;2022-07-29T12:26:18;99793.69;;;33.84
70389;BMP280;58659;49.050;8.530;2022-07-29T12:28:43;99796.88;;;33.43
70389;BMP280;58659;49.050;8.530;2022-07-29T12:31:14;99790.44;;;33.14
70389;BMP280;58659;49.050;8.530;2022-07-29T12:33:41;99783.69;;;33.02
70389;BMP280;58659;49.050;8.530;2022-07-29T12:36:07;99787.91;;;32.48
70389;BMP280;58659;49.050;8.530;2022-07-29T12:38:33;99794.03;;;31.81
70389;BMP280;58659;49.050;8.530;2022-07-29T12:40:59;99780.00;;;31.53
70389;BMP280;58659;49.050;8.530;2022-07-29T12:43:45;99793.44;;;31.29
70389;BMP280;58659;49.050;8.530;2022-07-29T12:46:22;99788.66;;;31.11
70389;BMP280;58659;49.050;8.530;2022-07-29T12:48:50;99786.50;;;31.04
70389;BMP280;58659;49.050;8.530;2022-07-29T12:51:15;99794.44;;;31.26
70389;BMP280;58659;49.050;8.530;2022-07-29T12:53:41;99774.44;;;31.46
70389;BMP280;58659;49.050;8.530;2022-07-29T12:56:26;99779.78;;;31.81
70389;BMP280;58659;49.050;8.530;2022-07-29T12:58:51;99777.84;;;32.42
70389;BMP280;58659;49.050;8.530;2022-07-29T13:01:17;99783.09;;;32.35
70389;BMP280;58659;49.050;8.530;2022-07-29T13:03:57;99784.06;;;32.37
70389;BMP280;58659;49.050;8.530;2022-07-29T13:06:43;99778.13;;;32.20
70389;BMP280;58659;49.050;8.530;2022-07-29T13:09:10;99775.97;;;32.37
70389;BMP280;58659;49.050;8.530;2022-07-29T13:11:42;99778.78;;;31.54
70389;BMP280;58659;49.050;8.530;2022-07-29T13:14:09;99783.72;;;31.50
70389;BMP280;58659;49.050;8.530;2022-07-29T13:16:35;99778.63;;;31.41
70389;BMP280;58659;49.050;8.530;2022-07-29T13:19:07;99792.69;;;31.28
70389;BMP280;58659;49.050;8.530;2022-07-29T13:21:33;99792.44;;;31.32
70389;BMP280;58659;49.050;8.530;2022-07-29T13:23:58;99789.53;;;31.60
70389;BMP280;58659;49.050;8.530;2022-07-29T13:26:24;99790.56;;;31.57
70389;BMP280;58659;49.050;8.530;2022-07-29T13:28:49;99790.81;;;31.53
70389;BMP280;58659;49.050;8.530;2022-07-29T13:31:14;99790.94;;;31.66
70389;BMP280;58659;49.050;8.530;2022-07-29T13:33:39;99793.72;;;31.55
70389;BMP280;58659;49.050;8.530;2022-07-29T13:36:05;99791.44;;;31.35
70389;BMP280;58659;49.050;8.530;2022-07-29T13:38:30;99789.28;;;31.28
70389;BMP280;58659;49.050;8.530;2022-07-29T13:40:56;99792.41;;;30.97
70389;BMP280;58659;49.050;8.530;2022-07-29T13:43:21;99788.78;;;30.89
70389;BMP280;58659;49.050;8.530;2022-07-29T13:45:46;99800.91;;;31.12
70389;BMP280;58659;49.050;8.530;2022-07-29T13:48:11;99798.66;;;31.21
70389;BMP280;58659;49.050;8.530;2022-07-29T13:50:37;99789.34;;;30.65
70389;BMP280;58659;49.050;8.530;2022-07-29T13:53:02;99786.69;;;30.60
70389;BMP280;58659;49.050;8.530;2022-07-29T13:55:27;99789.25;;;30.87
70389;BMP280;58659;49.050;8.530;2022-07-29T13:57:52;99783.13;;;30.87
70389;BMP280;58659;49.050;8.530;2022-07-29T14:00:18;99783.09;;;30.92
70389;BMP280;58659;49.050;8.530;2022-07-29T14:02:44;99787.31;;;30.82
70389;BMP280;58659;49.050;8.530;2022-07-29T14:05:09;99787.28;;;30.88
70389;BMP280;58659;49.050;8.530;2022-07-29T14:07:35;99783.66;;;31.26
70389;BMP280;58659;49.050;8.530;2022-07-29T14:10:00;99777.94;;;31.35
70389;BMP280;58659;49.050;8.530;2022-07-29T14:12:26;99781.44;;;31.24
70389;BMP280;58659;49.050;8.530;2022-07-29T14:14:51;99783.38;;;31.29
70389;BMP280;58659;49.050;8.530;2022-07-29T14:17:16;99785.66;;;31.79
70389;BMP280;58659;49.050;8.530;2022-07-29T14:19:42;99787.31;;;31.58
70389;BMP280;58659;49.050;8.530;2022-07-29T14:22:08;99776.69;;;31.36
70389;BMP280;58659;49.050;8.530;2022-07-29T14:24:33;99776.34;;;31.51
70389;BMP280;58659;49.050;8.530;2022-07-29T14:26:59;99773.59;;;31.56
70389;BMP280;58659;49.050;8.530;2022-07-29T14:29:24;99770.47;;;32.00
70389;BMP280;58659;49.050;8.530;2022-07-29T14:31:49;99771.75;;;31.99
70389;BMP280;58659;49.050;8.530;2022-07-29T14:34:14;99787.16;;;31.80